createdAt,value
2022-08-27T00:03:51.463Z,99.42
2022-08-27T00:08:54.519Z,99.61
2022-08-27T00:13:56.682Z,100.00
2022-08-27T00:19:00.210Z,100.00
2022-08-27T00:24:02.406Z,100.00
2022-08-27T00:29:05.173Z,100.00
2022-08-27T00:34:08.824Z,100.00
2022-08-27T00:39:15.901Z,100.00
2022-08-27T00:44:18.034Z,99.90
2022-08-27T00:49:27.107Z,99.58
2022-08-27T00:54:30.348Z,100.00
2022-08-27T00:59:32.678Z,99.99
2022-08-27T01:04:39.180Z,99.92
2022-08-27T01:09:43.116Z,100.00
2022-08-27T01:14:46.703Z,100.00
2022-08-27T01:19:54.590Z,100.00
2022-08-27T01:25:01.587Z,100.00
2022-08-27T01:30:05.103Z,100.00
2022-08-27T01:35:09.955Z,99.96
2022-08-27T01:40:14.333Z,100.00
2022-08-27T01:45:21.365Z,99.88
2022-08-27T01:50:27.262Z,100.00
2022-08-27T01:55:32.225Z,100.00
2022-08-27T02:00:37.145Z,99.98
2022-08-27T02:05:44.779Z,100.00
2022-08-27T02:10:49.925Z,100.00
2022-08-27T02:15:51.981Z,99.80
2022-08-27T02:20:54.100Z,100.00
2022-08-27T02:25:57.580Z,99.85
2022-08-27T02:30:59.691Z,100.00
2022-08-27T02:36:02.871Z,100.00
2022-08-27T02:41:07.079Z,100.00
2022-08-27T02:46:09.360Z,100.00
2022-08-27T02:51:11.790Z,100.00
2022-08-27T02:56:21.634Z,100.00
2022-08-27T03:01:24.052Z,100.00
2022-08-27T03:06:26.412Z,100.00
2022-08-27T03:11:31.313Z,99.97
2022-08-27T03:16:34.191Z,99.62
2022-08-27T03:27:01.154Z,99.13
2022-08-27T03:32:05.973Z,98.95
2022-08-27T03:37:07.774Z,98.83
2022-08-27T03:42:10.961Z,98.82
2022-08-27T03:47:12.843Z,99.41
2022-08-27T03:52:14.773Z,99.16
2022-08-27T03:57:17.950Z,98.81
2022-08-27T04:02:19.681Z,99.19
2022-08-27T04:07:21.702Z,98.46
2022-08-27T04:12:24.952Z,99.55
2022-08-27T04:17:26.870Z,99.61
2022-08-27T04:22:28.789Z,99.75
2022-08-27T04:27:32.167Z,99.63
2022-08-27T04:32:35.918Z,99.61
2022-08-27T04:37:37.699Z,99.57
2022-08-27T04:42:40.851Z,99.04
2022-08-27T04:47:42.645Z,99.23
2022-08-27T04:52:44.442Z,99.44
2022-08-27T04:57:47.640Z,98.62
2022-08-27T05:02:49.427Z,99.21
2022-08-27T05:07:51.422Z,99.14
2022-08-27T05:12:58.083Z,99.06
2022-08-27T05:18:01.869Z,99.03
2022-08-27T05:23:03.612Z,99.17
2022-08-27T05:28:06.831Z,98.93
2022-08-27T05:33:09.061Z,98.41
2022-08-27T05:38:11.143Z,98.83
2022-08-27T05:43:15.500Z,99.54
2022-08-27T05:48:17.509Z,100.00
2022-08-27T05:53:19.400Z,100.00
2022-08-27T05:58:22.531Z,100.00
2022-08-27T06:03:24.403Z,100.00
2022-08-27T06:08:26.624Z,100.00
2022-08-27T06:13:30.996Z,99.78
2022-08-27T06:18:33.261Z,99.34
2022-08-27T06:23:36.003Z,98.04
2022-08-27T06:28:39.437Z,96.69
2022-08-27T06:33:43.456Z,95.09
2022-08-27T06:38:45.984Z,93.89
2022-08-27T06:43:53.478Z,93.53
2022-08-27T06:48:58.274Z,92.90
2022-08-27T06:54:02.583Z,93.25
2022-08-27T06:59:11.666Z,92.31
2022-08-27T07:04:18.871Z,92.01
2022-08-27T07:09:20.950Z,91.82
2022-08-27T07:14:24.271Z,91.45
2022-08-27T07:19:26.221Z,91.04
2022-08-27T07:24:28.018Z,90.91
2022-08-27T07:29:32.345Z,91.02
2022-08-27T07:34:34.301Z,90.65
2022-08-27T07:39:36.178Z,90.43
2022-08-27T07:44:39.319Z,89.87
2022-08-27T07:49:42.525Z,89.21
2022-08-27T07:54:44.364Z,87.94
2022-08-27T07:59:47.474Z,88.66
2022-08-27T08:04:49.366Z,88.59
2022-08-27T08:09:51.393Z,89.71
2022-08-27T08:14:54.462Z,90.64
2022-08-27T08:20:17.609Z,90.06
2022-08-27T08:25:18.525Z,88.37
2022-08-27T08:30:22.274Z,88.61
2022-08-27T08:35:24.535Z,88.45
2022-08-27T08:40:32.939Z,88.26
2022-08-27T08:45:41.499Z,87.87
2022-08-27T08:50:53.861Z,88.04
2022-08-27T08:56:00.417Z,86.93
2022-08-27T09:01:07.431Z,87.20
2022-08-27T09:06:18.320Z,87.19
2022-08-27T09:11:27.961Z,88.14
2022-08-27T09:16:31.661Z,85.65
2022-08-27T09:21:39.997Z,85.33
2022-08-27T09:26:43.664Z,84.86
2022-08-27T09:31:53.974Z,86.38
2022-08-27T09:37:04.184Z,85.99
2022-08-27T09:42:07.885Z,85.88
2022-08-27T09:47:13.630Z,85.71
2022-08-27T09:52:32.384Z,85.33
2022-08-27T09:57:41.570Z,82.21
2022-08-27T10:02:52.631Z,79.61
2022-08-27T10:07:59.445Z,78.81
2022-08-27T10:13:10.266Z,80.27
2022-08-27T10:18:24.962Z,80.88
2022-08-27T10:23:33.637Z,79.00
2022-08-27T10:28:45.833Z,74.99
2022-08-27T10:34:02.503Z,74.94
2022-08-27T10:39:13.356Z,73.56
2022-08-27T10:44:37.204Z,70.63
2022-08-27T10:49:47.193Z,76.48
2022-08-27T10:54:57.176Z,77.63
2022-08-27T11:00:04.832Z,77.68
2022-08-27T11:05:17.666Z,77.32
2022-08-27T11:10:23.799Z,77.55
2022-08-27T11:15:29.695Z,77.17
2022-08-27T11:20:40.949Z,78.41
2022-08-27T11:25:50.457Z,78.35
2022-08-27T11:30:59.706Z,79.27
2022-08-27T11:36:26.256Z,79.67
2022-08-27T11:41:47.373Z,76.89
2022-08-27T11:46:53.541Z,73.19
2022-08-27T11:52:03.530Z,74.03
2022-08-27T11:57:15.063Z,74.99
2022-08-27T12:02:22.902Z,75.00
2022-08-27T12:07:33.547Z,74.71
2022-08-27T12:12:44.893Z,74.67
2022-08-27T12:17:56.170Z,71.05
2022-08-27T12:23:16.971Z,69.64
2022-08-27T12:28:26.736Z,67.27
2022-08-27T12:33:35.212Z,69.28
2022-08-27T12:38:46.294Z,68.27
2022-08-27T12:44:03.145Z,66.79
2022-08-27T12:49:34.255Z,69.49
2022-08-27T12:54:40.725Z,67.76
2022-08-27T12:59:56.312Z,66.10
2022-08-27T13:05:02.976Z,63.49
2022-08-27T13:10:13.477Z,63.83
2022-08-27T13:15:17.309Z,63.21
2022-08-27T13:20:22.679Z,60.48
2022-08-27T13:25:28.820Z,62.75
2022-08-27T13:30:35.531Z,63.51
2022-08-27T13:35:40.836Z,65.13
2022-08-27T13:40:56.923Z,67.07
2022-08-27T13:46:01.381Z,68.68
2022-08-27T13:51:03.567Z,68.79
2022-08-27T13:56:07.494Z,69.17
2022-08-27T14:01:13.750Z,70.21
2022-08-27T14:06:31.406Z,69.53
2022-08-27T14:11:39.305Z,70.45
2022-08-27T14:16:41.995Z,70.89
2022-08-27T14:21:44.262Z,71.88
2022-08-27T14:26:50.493Z,72.36
2022-08-27T14:31:52.691Z,73.01
2022-08-27T14:36:55.147Z,74.21
2022-08-27T14:41:58.463Z,75.17
2022-08-27T14:47:00.870Z,75.96
2022-08-27T14:52:04.921Z,76.13
2022-08-27T14:57:09.239Z,76.28
2022-08-27T15:02:12.909Z,76.90
2022-08-27T15:07:15.014Z,77.29
2022-08-27T15:12:26.479Z,77.77
2022-08-27T15:17:35.195Z,77.91
2022-08-27T15:22:44.038Z,78.78
2022-08-27T15:27:47.578Z,80.60
2022-08-27T15:32:49.654Z,80.85
2022-08-27T15:37:51.641Z,81.61
2022-08-27T15:42:58.027Z,82.40
2022-08-27T15:48:00.730Z,82.32
2022-08-27T15:53:05.710Z,83.21
2022-08-27T15:58:10.099Z,84.13
2022-08-27T16:03:14.634Z,83.73
2022-08-27T16:08:16.804Z,83.65
2022-08-27T16:13:19.825Z,84.56
2022-08-27T16:18:26.620Z,83.95
2022-08-27T16:23:30.762Z,84.24
2022-08-27T16:28:34.040Z,85.29
2022-08-27T16:33:36.113Z,86.57
2022-08-27T16:38:41.785Z,85.44
2022-08-27T16:43:45.111Z,85.44
2022-08-27T16:48:46.902Z,85.33
2022-08-27T16:53:50.518Z,86.28
2022-08-27T16:58:53.763Z,85.72
2022-08-27T17:04:11.275Z,86.41
2022-08-27T17:09:17.411Z,86.82
2022-08-27T17:14:20.657Z,86.92
2022-08-27T17:19:22.384Z,87.02
2022-08-27T17:24:24.410Z,87.09
2022-08-27T17:29:27.589Z,87.87
2022-08-27T17:34:31.475Z,88.85
2022-08-27T17:39:33.467Z,89.03
2022-08-27T17:44:37.803Z,89.51
2022-08-27T17:49:40.115Z,89.45
2022-08-27T17:54:45.318Z,90.54
2022-08-27T17:59:50.018Z,91.20
2022-08-27T18:04:52.290Z,91.75
2022-08-27T18:09:54.369Z,92.61
2022-08-27T18:15:04.456Z,92.96
2022-08-27T18:20:08.228Z,92.47
2022-08-27T18:25:12.522Z,92.49
2022-08-27T18:30:15.636Z,92.79
2022-08-27T18:35:19.857Z,92.93
2022-08-27T18:40:24.750Z,92.97
2022-08-27T18:45:29.207Z,92.89
2022-08-27T18:50:30.958Z,91.81
2022-08-27T18:55:32.644Z,92.60
2022-08-27T19:00:36.903Z,92.58
2022-08-27T19:05:39.177Z,92.61
2022-08-27T19:10:45.363Z,92.46
2022-08-27T19:15:54.138Z,92.10
2022-08-27T19:20:56.513Z,91.49
2022-08-27T19:25:59.807Z,91.29
2022-08-27T19:31:02.898Z,91.78
2022-08-27T19:36:06.290Z,91.68
2022-08-27T19:41:08.282Z,91.45
2022-08-27T19:46:12.548Z,91.75
2022-08-27T19:51:14.567Z,91.79
2022-08-27T19:56:17.473Z,92.27
2022-08-27T20:01:20.738Z,92.67
2022-08-27T20:06:31.444Z,92.90
2022-08-27T20:11:36.905Z,92.83
2022-08-27T20:16:43.597Z,92.67
2022-08-27T20:21:52.749Z,93.27
2022-08-27T20:26:58.097Z,93.97
2022-08-27T20:32:03.379Z,94.09
2022-08-27T20:37:05.413Z,93.54
2022-08-27T20:42:07.675Z,93.35
2022-08-27T20:47:11.217Z,94.07
2022-08-27T20:52:13.661Z,94.23
2022-08-27T20:57:15.676Z,94.41
2022-08-27T21:02:24.263Z,94.22
2022-08-27T21:07:26.218Z,94.22
2022-08-27T21:12:29.433Z,93.59
2022-08-27T21:17:32.585Z,93.08
2022-08-27T21:22:34.775Z,92.30
2022-08-27T21:27:37.259Z,91.58
2022-08-27T21:32:40.487Z,90.68
2022-08-27T21:37:42.579Z,90.66
2022-08-27T21:42:44.291Z,89.34
2022-08-27T21:47:47.854Z,89.64
2022-08-27T21:52:49.975Z,90.33
2022-08-27T21:57:52.003Z,90.55
2022-08-27T22:02:55.861Z,90.20
2022-08-27T22:07:58.028Z,90.46
2022-08-27T22:13:00.132Z,89.98
2022-08-27T22:18:04.626Z,89.75
2022-08-27T22:23:08.542Z,89.62
2022-08-27T22:28:12.352Z,89.16
2022-08-27T22:33:16.453Z,87.00
2022-08-27T22:38:18.707Z,86.98
2022-08-27T22:43:20.862Z,86.96
2022-08-27T22:48:24.110Z,86.49
2022-08-27T22:53:26.037Z,86.17
2022-08-27T22:58:27.837Z,86.31
2022-08-27T23:03:31.368Z,86.27
2022-08-27T23:08:33.501Z,86.68
2022-08-27T23:13:35.833Z,86.57
2022-08-27T23:18:39.120Z,86.27
2022-08-27T23:23:41.145Z,85.72
2022-08-27T23:28:43.537Z,86.32
2022-08-27T23:33:50.825Z,86.14
2022-08-27T23:38:52.524Z,86.31
2022-08-27T23:43:54.569Z,86.36
2022-08-27T23:48:57.894Z,86.42
2022-08-27T23:53:59.960Z,86.92
2022-08-27T23:59:02.092Z,87.14
